createdAt,value
2018-07-24T00:01:46.208Z,98.90
2018-07-24T00:04:14.476Z,98.70
2018-07-24T00:06:42.744Z,98.70
2018-07-24T00:09:11.081Z,98.90
2018-07-24T00:11:39.361Z,99.50
2018-07-24T00:14:07.753Z,99.90
2018-07-24T00:16:36.019Z,99.90
2018-07-24T00:19:04.327Z,99.90
2018-07-24T00:21:32.616Z,99.90
2018-07-24T00:24:00.922Z,99.70
2018-07-24T00:26:29.298Z,99.90
2018-07-24T00:28:57.599Z,99.90
2018-07-24T00:31:25.939Z,99.90
2018-07-24T00:33:54.377Z,99.90
2018-07-24T00:36:22.632Z,99.90
2018-07-24T00:38:51.141Z,99.80
2018-07-24T00:41:19.404Z,99.50
2018-07-24T00:43:47.692Z,99.30
2018-07-24T00:46:15.952Z,99.20
2018-07-24T00:48:44.220Z,99.10
2018-07-24T00:51:12.480Z,99.20
2018-07-24T00:53:40.764Z,99.70
2018-07-24T00:56:09.109Z,99.80
2018-07-24T00:58:37.387Z,99.80
2018-07-24T01:01:05.691Z,99.90
2018-07-24T01:03:33.956Z,99.90
2018-07-24T01:06:02.236Z,99.90
2018-07-24T01:08:30.544Z,99.90
2018-07-24T01:13:26.815Z,99.40
2018-07-24T01:15:55.104Z,99.00
2018-07-24T01:18:23.392Z,99.50
2018-07-24T01:20:51.668Z,99.90
2018-07-24T01:23:19.932Z,99.80
2018-07-24T01:25:48.192Z,99.90
2018-07-24T01:28:16.456Z,99.90
2018-07-24T01:30:44.721Z,99.80
2018-07-24T01:33:12.995Z,99.60
2018-07-24T01:35:41.260Z,99.30
2018-07-24T01:38:09.573Z,99.60
2018-07-24T01:40:37.831Z,99.80
2018-07-24T01:43:06.091Z,99.90
2018-07-24T01:45:34.380Z,99.80
2018-07-24T01:48:02.636Z,99.80
2018-07-24T01:50:30.924Z,99.60
2018-07-24T01:52:59.216Z,99.60
2018-07-24T01:57:55.473Z,99.50
2018-07-24T02:00:23.728Z,99.40
2018-07-24T02:02:52.000Z,99.40
2018-07-24T02:05:20.449Z,99.30
2018-07-24T02:07:48.712Z,99.30
2018-07-24T02:10:17.012Z,99.50
2018-07-24T02:12:45.320Z,99.70
2018-07-24T02:15:13.632Z,99.90
2018-07-24T02:17:41.884Z,99.90
2018-07-24T02:20:10.169Z,99.90
2018-07-24T02:22:38.594Z,99.70
2018-07-24T02:25:06.870Z,98.60
2018-07-24T02:27:35.140Z,99.30
2018-07-24T02:30:03.469Z,99.60
2018-07-24T02:32:31.732Z,99.60
2018-07-24T02:37:28.029Z,99.40
2018-07-24T02:39:56.323Z,99.40
2018-07-24T02:42:24.589Z,99.50
2018-07-24T02:44:52.872Z,99.60
2018-07-24T02:47:21.189Z,99.70
2018-07-24T02:49:49.531Z,99.80
2018-07-24T02:52:17.834Z,99.70
2018-07-24T02:54:46.121Z,99.60
2018-07-24T02:57:14.416Z,99.90
2018-07-24T02:59:42.665Z,99.90
2018-07-24T03:02:10.982Z,99.90
2018-07-24T03:04:39.250Z,99.90
2018-07-24T03:07:07.511Z,99.70
2018-07-24T03:09:35.785Z,99.60
2018-07-24T03:12:04.160Z,99.60
2018-07-24T03:17:00.558Z,99.10
2018-07-24T03:19:28.882Z,99.30
2018-07-24T03:21:57.157Z,99.30
2018-07-24T03:24:25.450Z,99.50
2018-07-24T03:26:53.713Z,99.90
2018-07-24T03:29:22.170Z,99.90
2018-07-24T03:31:50.451Z,99.90
2018-07-24T03:34:18.713Z,99.80
2018-07-24T03:36:47.033Z,99.80
2018-07-24T03:39:15.325Z,99.80
2018-07-24T03:41:43.603Z,99.70
2018-07-24T03:44:11.930Z,99.70
2018-07-24T03:46:40.189Z,99.40
2018-07-24T03:49:08.460Z,99.30
2018-07-24T03:51:36.745Z,99.50
2018-07-24T03:54:05.121Z,99.30
2018-07-24T03:56:33.404Z,99.30
2018-07-24T03:59:01.669Z,99.30
2018-07-24T04:01:29.954Z,99.10
2018-07-24T04:03:58.237Z,99.00
2018-07-24T04:06:26.525Z,99.10
2018-07-24T04:08:54.801Z,99.30
2018-07-24T04:11:23.076Z,99.20
2018-07-24T04:13:51.366Z,99.30
2018-07-24T04:16:19.860Z,99.00
2018-07-24T04:18:49.165Z,99.00
2018-07-24T04:21:18.481Z,99.10
2018-07-24T04:23:47.568Z,98.80
2018-07-24T04:26:15.844Z,98.50
2018-07-24T04:28:45.073Z,98.40
2018-07-24T04:31:14.242Z,98.70
2018-07-24T04:33:43.184Z,98.30
2018-07-24T04:36:11.467Z,98.50
2018-07-24T04:38:39.748Z,97.60
2018-07-24T04:41:08.024Z,97.30
2018-07-24T04:43:36.292Z,97.30
2018-07-24T04:46:04.638Z,97.10
2018-07-24T04:48:33.228Z,97.00
2018-07-24T04:51:01.460Z,97.50
2018-07-24T04:53:29.740Z,97.00
2018-07-24T04:55:58.055Z,97.50
2018-07-24T04:58:26.328Z,97.50
2018-07-24T05:00:54.874Z,98.00
2018-07-24T05:03:23.223Z,96.70
2018-07-24T05:05:51.473Z,96.40
2018-07-24T05:08:19.841Z,95.70
2018-07-24T05:10:48.132Z,95.50
2018-07-24T05:13:16.481Z,95.20
2018-07-24T05:15:44.775Z,95.10
2018-07-24T05:18:13.044Z,94.90
2018-07-24T05:20:41.372Z,94.90
2018-07-24T05:23:09.635Z,95.00
2018-07-24T05:25:37.948Z,94.60
2018-07-24T05:28:06.172Z,95.10
2018-07-24T05:30:34.464Z,95.20
2018-07-24T05:33:02.726Z,95.00
2018-07-24T05:35:31.018Z,95.00
2018-07-24T05:37:59.276Z,95.30
2018-07-24T05:40:27.549Z,95.10
2018-07-24T05:42:55.988Z,95.50
2018-07-24T05:45:24.272Z,94.20
2018-07-24T05:47:52.619Z,94.70
2018-07-24T05:50:20.900Z,95.20
2018-07-24T05:52:49.186Z,94.90
2018-07-24T05:55:17.484Z,94.70
2018-07-24T05:57:45.956Z,94.50
2018-07-24T06:00:14.312Z,94.20
2018-07-24T06:02:42.589Z,95.00
2018-07-24T06:05:10.869Z,94.40
2018-07-24T06:07:39.163Z,94.00
2018-07-24T06:10:07.469Z,94.40
2018-07-24T06:12:35.762Z,94.20
2018-07-24T06:15:04.757Z,94.50
2018-07-24T06:17:33.021Z,93.20
2018-07-24T06:20:01.349Z,93.90
2018-07-24T06:22:29.670Z,92.50
2018-07-24T06:24:57.965Z,92.10
2018-07-24T06:27:26.265Z,93.00
2018-07-24T06:29:54.529Z,92.10
2018-07-24T06:32:22.828Z,92.60
2018-07-24T06:34:51.234Z,91.90
2018-07-24T06:37:19.513Z,91.60
2018-07-24T06:39:47.801Z,91.40
2018-07-24T06:42:16.053Z,92.20
2018-07-24T06:44:44.315Z,91.20
2018-07-24T06:47:12.661Z,91.70
2018-07-24T06:49:41.017Z,91.10
2018-07-24T06:52:09.296Z,90.60
2018-07-24T06:54:37.579Z,91.80
2018-07-24T06:57:05.866Z,91.20
2018-07-24T06:59:34.153Z,91.90
2018-07-24T07:02:02.423Z,89.60
2018-07-24T07:04:30.679Z,91.20
2018-07-24T07:06:58.937Z,90.60
2018-07-24T07:09:27.201Z,88.30
2018-07-24T07:11:55.475Z,89.10
2018-07-24T07:14:23.720Z,88.10
2018-07-24T07:16:51.987Z,86.90
2018-07-24T07:19:20.305Z,86.60
2018-07-24T07:21:48.584Z,85.40
2018-07-24T07:24:16.856Z,86.00
2018-07-24T07:26:45.140Z,85.90
2018-07-24T07:29:13.484Z,84.70
2018-07-24T07:34:09.636Z,84.60
2018-07-24T07:39:07.804Z,85.60
2018-07-24T07:41:36.060Z,86.00
2018-07-24T07:44:04.375Z,85.00
2018-07-24T07:46:32.625Z,85.40
2018-07-24T07:49:00.990Z,87.00
2018-07-24T07:51:29.378Z,81.50
2018-07-24T07:53:57.676Z,83.90
2018-07-24T07:56:25.963Z,82.60
2018-07-24T07:58:54.237Z,83.60
2018-07-24T08:01:22.507Z,80.00
2018-07-24T08:03:51.174Z,81.30
2018-07-24T08:06:19.496Z,80.50
2018-07-24T08:08:47.764Z,78.80
2018-07-24T08:11:16.066Z,77.50
2018-07-24T08:13:44.368Z,77.00
2018-07-24T08:16:12.639Z,78.10
2018-07-24T08:18:40.926Z,78.30
2018-07-24T08:21:09.255Z,79.10
2018-07-24T08:23:37.517Z,76.30
2018-07-24T08:26:05.848Z,75.90
2018-07-24T08:28:34.234Z,75.30
2018-07-24T08:31:02.513Z,74.80
2018-07-24T08:33:30.830Z,73.70
2018-07-24T08:35:59.189Z,71.00
2018-07-24T08:38:27.578Z,73.70
2018-07-24T08:40:55.880Z,74.60
2018-07-24T08:43:24.219Z,74.90
2018-07-24T08:45:52.512Z,71.30
2018-07-24T08:48:20.834Z,71.50
2018-07-24T08:50:49.167Z,71.30
2018-07-24T08:53:17.849Z,67.90
2018-07-24T08:55:46.191Z,66.30
2018-07-24T08:58:14.430Z,67.10
2018-07-24T09:00:42.810Z,67.30
2018-07-24T09:03:11.112Z,66.40
2018-07-24T09:05:39.338Z,66.10
2018-07-24T09:08:07.602Z,70.10
2018-07-24T09:10:35.861Z,68.50
2018-07-24T09:13:04.181Z,66.90
2018-07-24T09:15:32.492Z,70.30
2018-07-24T09:18:01.263Z,65.40
2018-07-24T09:20:29.573Z,65.00
2018-07-24T09:22:57.974Z,67.40
2018-07-24T09:25:26.255Z,69.00
2018-07-24T09:27:54.523Z,65.40
2018-07-24T09:30:22.805Z,63.20
2018-07-24T09:32:51.127Z,64.90
2018-07-24T09:35:19.424Z,64.70
2018-07-24T09:37:47.747Z,61.80
2018-07-24T09:40:16.030Z,62.70
2018-07-24T09:45:12.311Z,65.30
2018-07-24T09:47:40.637Z,64.70
2018-07-24T09:50:09.130Z,64.80
2018-07-24T09:52:37.466Z,62.40
2018-07-24T09:55:05.773Z,61.40
2018-07-24T09:57:34.040Z,60.90
2018-07-24T10:00:02.344Z,62.40
2018-07-24T10:02:30.620Z,63.00
2018-07-24T10:07:26.947Z,60.80
2018-07-24T10:09:55.305Z,63.00
2018-07-24T10:12:23.624Z,61.30
2018-07-24T10:17:20.089Z,59.70
2018-07-24T10:19:48.545Z,61.60
2018-07-24T10:24:44.945Z,60.30
2018-07-24T10:27:13.281Z,60.70
2018-07-24T10:29:41.577Z,60.80
2018-07-24T10:32:10.058Z,58.10
2018-07-24T10:34:38.404Z,56.90
2018-07-24T10:37:07.048Z,56.40
2018-07-24T10:39:35.402Z,55.60
2018-07-24T10:42:03.716Z,57.60
2018-07-24T10:44:31.992Z,53.60
2018-07-24T10:47:00.289Z,56.70
2018-07-24T10:49:28.590Z,56.90
2018-07-24T10:51:57.032Z,55.90
2018-07-24T10:54:25.470Z,56.50
2018-07-24T10:56:53.745Z,56.10
2018-07-24T10:59:22.010Z,57.00
2018-07-24T11:01:50.261Z,56.30
2018-07-24T11:04:18.522Z,54.50
2018-07-24T11:06:46.871Z,56.30
2018-07-24T11:09:15.276Z,54.20
2018-07-24T11:11:43.596Z,54.40
2018-07-24T11:14:12.015Z,52.80
2018-07-24T11:16:40.355Z,52.00
2018-07-24T11:19:08.632Z,52.80
2018-07-24T11:21:37.004Z,50.20
2018-07-24T11:24:05.398Z,53.40
2018-07-24T11:26:33.665Z,51.80
2018-07-24T11:29:01.972Z,52.80
2018-07-24T11:31:30.240Z,49.80
2018-07-24T11:33:58.618Z,50.00
2018-07-24T11:36:26.901Z,49.10
2018-07-24T11:38:55.263Z,47.40
2018-07-24T11:41:23.505Z,49.80
2018-07-24T11:43:51.764Z,50.10
2018-07-24T11:46:20.033Z,50.00
2018-07-24T11:48:48.319Z,50.60
2018-07-24T11:51:16.739Z,49.60
2018-07-24T11:53:45.049Z,49.50
2018-07-24T11:56:13.380Z,48.90
2018-07-24T11:58:41.719Z,50.20
2018-07-24T12:01:09.920Z,50.00
2018-07-24T12:03:38.297Z,48.80
2018-07-24T12:06:06.516Z,48.20
2018-07-24T12:08:34.772Z,47.90
2018-07-24T12:11:03.067Z,49.40
2018-07-24T12:13:31.320Z,47.60
2018-07-24T12:15:59.698Z,48.00
2018-07-24T12:18:27.953Z,45.80
2018-07-24T12:20:56.230Z,46.70
2018-07-24T12:23:24.574Z,46.90
2018-07-24T12:25:52.845Z,46.80
2018-07-24T12:28:21.101Z,46.60
2018-07-24T12:30:49.370Z,47.30
2018-07-24T12:33:17.637Z,46.90
2018-07-24T12:35:45.922Z,47.60
2018-07-24T12:38:14.173Z,45.80
2018-07-24T12:43:10.481Z,46.10
2018-07-24T12:45:38.813Z,46.70
2018-07-24T12:48:07.055Z,45.90
2018-07-24T12:50:35.344Z,46.80
2018-07-24T12:53:03.608Z,47.50
2018-07-24T12:55:31.985Z,47.10
2018-07-24T12:58:00.348Z,45.60
2018-07-24T13:00:28.628Z,48.30
2018-07-24T13:02:56.980Z,47.10
2018-07-24T13:05:25.389Z,48.40
2018-07-24T13:07:53.629Z,47.80
2018-07-24T13:10:21.874Z,46.20
2018-07-24T13:12:50.176Z,45.20
2018-07-24T13:15:18.472Z,44.70
2018-07-24T13:17:46.752Z,43.80
2018-07-24T13:20:15.024Z,44.30
2018-07-24T13:22:43.325Z,45.30
2018-07-24T13:25:11.676Z,43.70
2018-07-24T13:27:39.984Z,46.00
2018-07-24T13:30:08.237Z,44.80
2018-07-24T13:32:37.629Z,43.50
2018-07-24T13:35:06.225Z,43.90
2018-07-24T13:37:34.504Z,42.70
2018-07-24T13:40:02.798Z,42.60
2018-07-24T13:42:31.190Z,43.60
2018-07-24T13:44:59.521Z,44.10
2018-07-24T13:47:27.756Z,44.40
2018-07-24T13:52:24.058Z,40.90
2018-07-24T13:54:52.340Z,40.70
2018-07-24T13:57:20.724Z,42.60
2018-07-24T13:59:48.993Z,43.80
2018-07-24T14:02:17.412Z,39.60
2018-07-24T14:04:45.706Z,41.00
2018-07-24T14:09:42.029Z,41.80
2018-07-24T14:12:16.762Z,38.50
2018-07-24T14:14:45.052Z,39.00
2018-07-24T14:17:13.299Z,38.40
2018-07-24T14:19:41.561Z,39.00
2018-07-24T14:22:09.892Z,39.30
2018-07-24T14:24:38.172Z,39.80
2018-07-24T14:27:06.484Z,40.00
2018-07-24T14:29:34.759Z,41.50
2018-07-24T14:32:03.086Z,41.20
2018-07-24T14:34:31.361Z,41.00
2018-07-24T14:36:59.661Z,41.20
2018-07-24T14:39:27.915Z,41.10
2018-07-24T14:41:56.171Z,40.40
2018-07-24T14:44:24.432Z,40.70
2018-07-24T14:46:52.688Z,41.00
2018-07-24T14:49:20.964Z,41.40
2018-07-24T14:51:49.437Z,39.40
2018-07-24T14:54:17.712Z,40.30
2018-07-24T14:56:45.994Z,42.60
2018-07-24T14:59:14.277Z,40.90
2018-07-24T15:01:42.582Z,41.30
2018-07-24T15:04:11.126Z,41.60
2018-07-24T15:06:39.491Z,40.70
2018-07-24T15:09:09.279Z,41.10
2018-07-24T15:11:37.604Z,41.30
2018-07-24T15:14:05.949Z,41.50
2018-07-24T15:16:34.212Z,39.30
2018-07-24T15:19:02.568Z,39.70
2018-07-24T15:21:31.077Z,40.90
2018-07-24T15:23:59.467Z,39.50
2018-07-24T15:26:27.768Z,40.30
2018-07-24T15:28:56.038Z,41.10
2018-07-24T15:31:24.394Z,41.80
2018-07-24T15:33:52.656Z,42.40
2018-07-24T15:36:20.968Z,41.70
2018-07-24T15:38:49.255Z,41.40
2018-07-24T15:41:17.544Z,41.70
2018-07-24T15:43:45.832Z,41.10
2018-07-24T15:46:14.092Z,41.30
2018-07-24T15:48:42.371Z,42.00
2018-07-24T15:51:10.677Z,41.70
2018-07-24T15:53:38.940Z,42.20
2018-07-24T15:56:07.304Z,41.90
2018-07-24T16:01:03.624Z,39.40
2018-07-24T16:03:32.053Z,37.90
2018-07-24T16:06:00.337Z,35.80
2018-07-24T16:08:28.607Z,35.20
2018-07-24T16:10:56.887Z,33.90
2018-07-24T16:13:25.165Z,32.80
2018-07-24T16:15:53.510Z,31.30
2018-07-24T16:20:49.935Z,31.20
2018-07-24T16:23:18.297Z,29.40
2018-07-24T16:25:46.576Z,29.40
2018-07-24T16:28:14.916Z,29.40
2018-07-24T16:30:43.280Z,29.40
2018-07-24T16:33:11.702Z,28.70
2018-07-24T16:35:40.019Z,28.90
2018-07-24T16:38:08.324Z,28.40
2018-07-24T16:40:36.600Z,28.70
2018-07-24T16:43:04.978Z,28.70
2018-07-24T16:45:33.328Z,28.70
2018-07-24T16:48:01.594Z,28.90
2018-07-24T16:50:29.933Z,28.80
2018-07-24T16:52:58.165Z,29.60
2018-07-24T16:55:26.428Z,29.10
2018-07-24T16:57:54.983Z,28.40
2018-07-24T17:00:23.220Z,28.70
2018-07-24T17:02:51.645Z,28.40
2018-07-24T17:05:19.998Z,28.80
2018-07-24T17:07:48.264Z,29.00
2018-07-24T17:10:16.564Z,29.90
2018-07-24T17:12:44.859Z,30.00
2018-07-24T17:15:13.188Z,30.00
2018-07-24T17:17:41.493Z,30.50
2018-07-24T17:20:09.790Z,30.30
2018-07-24T17:22:38.065Z,31.30
2018-07-24T17:25:06.360Z,30.40
2018-07-24T17:27:34.695Z,30.40
2018-07-24T17:30:02.988Z,30.10
2018-07-24T17:32:31.253Z,30.00
2018-07-24T17:34:59.528Z,30.10
2018-07-24T17:37:27.824Z,30.50
2018-07-24T17:39:56.107Z,29.50
2018-07-24T17:42:24.503Z,29.50
2018-07-24T17:44:52.772Z,29.70
2018-07-24T17:47:21.055Z,30.20
2018-07-24T17:49:49.331Z,30.10
2018-07-24T17:52:17.604Z,31.00
2018-07-24T17:54:45.868Z,31.80
2018-07-24T17:57:14.168Z,32.10
2018-07-24T17:59:42.476Z,32.30
2018-07-24T18:02:10.709Z,32.00
2018-07-24T18:04:39.016Z,32.60
2018-07-24T18:07:07.356Z,32.60
2018-07-24T18:09:35.617Z,32.60
2018-07-24T18:12:03.896Z,33.50
2018-07-24T18:14:32.159Z,33.90
2018-07-24T18:17:00.423Z,33.70
2018-07-24T18:19:28.696Z,34.40
2018-07-24T18:21:57.057Z,36.20
2018-07-24T18:24:25.341Z,38.10
2018-07-24T18:26:59.964Z,39.90
2018-07-24T18:29:28.258Z,41.80
2018-07-24T18:31:56.652Z,45.00
2018-07-24T18:34:24.936Z,45.50
2018-07-24T18:36:53.248Z,47.00
2018-07-24T18:39:21.507Z,45.80
2018-07-24T18:41:49.806Z,46.80
2018-07-24T18:44:18.064Z,47.70
2018-07-24T18:46:46.412Z,48.10
2018-07-24T18:49:14.626Z,49.40
2018-07-24T18:51:42.920Z,48.60
2018-07-24T18:54:11.245Z,50.10
2018-07-24T18:56:39.562Z,53.10
2018-07-24T18:59:08.099Z,54.40
2018-07-24T19:01:36.408Z,55.40
2018-07-24T19:04:04.680Z,55.60
2018-07-24T19:06:32.954Z,56.60
2018-07-24T19:09:01.232Z,56.30
2018-07-24T19:11:29.508Z,57.80
2018-07-24T19:13:57.770Z,59.00
2018-07-24T19:16:26.060Z,59.20
2018-07-24T19:18:54.353Z,59.40
2018-07-24T19:21:22.619Z,60.10
2018-07-24T19:23:50.895Z,59.10
2018-07-24T19:26:19.203Z,60.50
2018-07-24T19:28:47.488Z,61.70
2018-07-24T19:31:15.769Z,63.20
2018-07-24T19:33:44.024Z,64.10
2018-07-24T19:36:12.364Z,65.40
2018-07-24T19:38:40.649Z,66.00
2018-07-24T19:41:08.924Z,66.20
2018-07-24T19:43:37.184Z,65.10
2018-07-24T19:46:05.619Z,65.60
2018-07-24T19:48:33.892Z,67.10
2018-07-24T19:51:02.259Z,68.20
2018-07-24T19:53:30.528Z,70.10
2018-07-24T19:55:58.812Z,69.80
2018-07-24T19:58:27.088Z,70.10
2018-07-24T20:00:55.379Z,70.60
2018-07-24T20:03:23.644Z,71.70
2018-07-24T20:05:51.968Z,72.40
2018-07-24T20:08:20.201Z,72.90
2018-07-24T20:10:48.485Z,73.50
2018-07-24T20:13:16.811Z,74.40
2018-07-24T20:15:45.101Z,75.00
2018-07-24T20:18:13.402Z,75.80
2018-07-24T20:20:41.693Z,76.50
2018-07-24T20:23:10.039Z,76.20
2018-07-24T20:25:38.235Z,76.80
2018-07-24T20:28:06.529Z,78.10
2018-07-24T20:30:34.828Z,78.50
2018-07-24T20:33:03.099Z,78.30
2018-07-24T20:35:31.519Z,79.10
2018-07-24T20:37:59.707Z,79.40
2018-07-24T20:40:28.032Z,80.20
2018-07-24T20:42:56.377Z,80.30
2018-07-24T20:45:24.773Z,79.00
2018-07-24T20:47:53.036Z,80.10
2018-07-24T20:50:21.331Z,79.20
2018-07-24T20:52:49.555Z,79.60
2018-07-24T20:55:17.885Z,80.00
2018-07-24T20:57:46.155Z,80.30
2018-07-24T21:00:14.436Z,81.20
2018-07-24T21:02:43.564Z,81.80
2018-07-24T21:05:11.942Z,81.80
2018-07-24T21:07:40.247Z,82.00
2018-07-24T21:10:13.896Z,82.60
2018-07-24T21:15:10.212Z,82.80
2018-07-24T21:17:38.631Z,83.70
2018-07-24T21:20:07.019Z,83.00
2018-07-24T21:22:35.321Z,83.70
2018-07-24T21:25:03.667Z,83.90
2018-07-24T21:27:32.026Z,83.10
2018-07-24T21:30:00.269Z,84.40
2018-07-24T21:32:28.577Z,83.80
2018-07-24T21:34:56.898Z,84.30
2018-07-24T21:37:25.191Z,84.50
2018-07-24T21:39:53.561Z,84.60
2018-07-24T21:42:21.924Z,85.60
2018-07-24T21:44:50.292Z,85.40
2018-07-24T21:47:18.592Z,86.30
2018-07-24T21:49:46.868Z,86.50
2018-07-24T21:52:15.242Z,86.90
2018-07-24T21:54:43.506Z,87.00
2018-07-24T21:57:11.833Z,87.70
2018-07-24T21:59:40.112Z,88.10
2018-07-24T22:02:08.432Z,88.30
2018-07-24T22:04:36.737Z,88.30
2018-07-24T22:07:05.046Z,88.70
2018-07-24T22:09:33.381Z,89.00
2018-07-24T22:12:01.656Z,89.10
2018-07-24T22:14:29.964Z,89.70
2018-07-24T22:16:58.457Z,89.80
2018-07-24T22:19:26.781Z,90.10
2018-07-24T22:21:55.100Z,90.40
2018-07-24T22:24:23.386Z,90.50
2018-07-24T22:26:58.224Z,90.70
2018-07-24T22:29:26.553Z,90.60
2018-07-24T22:31:54.956Z,91.00
2018-07-24T22:34:23.237Z,91.00
2018-07-24T22:36:51.510Z,90.80
2018-07-24T22:39:19.780Z,90.90
2018-07-24T22:41:48.053Z,91.40
2018-07-24T22:44:16.324Z,91.40
2018-07-24T22:46:44.622Z,91.70
2018-07-24T22:49:12.915Z,91.50
2018-07-24T22:51:41.222Z,91.70
2018-07-24T22:54:09.624Z,91.50
2018-07-24T22:56:37.934Z,91.60
2018-07-24T22:59:12.665Z,91.60
2018-07-24T23:01:40.992Z,91.70
2018-07-24T23:04:09.257Z,91.70
2018-07-24T23:06:37.597Z,91.90
2018-07-24T23:09:08.204Z,92.00
2018-07-24T23:11:36.476Z,92.30
2018-07-24T23:14:04.800Z,92.10
2018-07-24T23:16:33.092Z,92.40
2018-07-24T23:19:01.381Z,92.50
2018-07-24T23:21:29.651Z,92.70
2018-07-24T23:23:58.053Z,92.60
2018-07-24T23:26:26.382Z,92.70
2018-07-24T23:28:54.624Z,92.80
2018-07-24T23:31:22.886Z,92.50
2018-07-24T23:33:51.162Z,92.40
2018-07-24T23:36:19.456Z,92.60
2018-07-24T23:38:47.749Z,92.60
2018-07-24T23:41:16.037Z,92.50
2018-07-24T23:43:44.296Z,92.40
2018-07-24T23:46:12.570Z,92.50
2018-07-24T23:48:40.840Z,92.60
2018-07-24T23:51:09.125Z,92.60
2018-07-24T23:53:37.393Z,92.60
2018-07-24T23:56:05.679Z,92.50
2018-07-24T23:58:33.953Z,92.60
